Time;durP1;ratioP1;P1;durP2;ratioP2;P2;SDS_P1;SDS_P2;PMS_P1;PMS_P2;Temp;Humidity;BMP_temperature;BMP_pressure;BME280_temperature;BME280_humidity;BME280_pressure;Samples;Min_cycle;Max_cycle;Signal;HPM_P1;HPM_P2
2023/10/14 00:01:34;;;;;;;22.20;15.65;;;19.10;1.00;;;;;;5083356;28;20047;-74
2023/10/14 00:04:04;;;;;;;21.70;16.00;;;19.10;1.00;;;;;;5107775;28;20424;-74
2023/10/14 00:06:30;;;;;;;25.30;16.40;;;19.10;1.00;;;;;;5107146;28;20012;-74
2023/10/14 00:08:58;;;;;;;30.50;17.30;;;19.00;1.00;;;;;;5108602;28;20413;-74
2023/10/14 00:11:47;;;;;;;22.42;16.38;;;19.00;1.00;;;;;;5123053;27;20031;-74
2023/10/14 00:14:18;;;;;;;23.13;17.83;;;19.00;1.00;;;;;;5107915;28;20382;-74
2023/10/14 00:16:51;;;;;;;31.20;17.00;;;18.90;1.00;;;;;;5089024;28;20486;-74
2023/10/14 00:19:21;;;;;;;26.08;17.65;;;18.90;1.00;;;;;;5108447;28;20432;-74
2023/10/14 00:21:48;;;;;;;24.10;17.25;;;18.90;1.00;;;;;;5108808;28;20016;-74
2023/10/14 00:24:27;;;;;;;25.67;16.73;;;18.90;1.00;;;;;;5112431;28;20024;-74
2023/10/14 00:26:54;;;;;;;24.27;17.95;;;18.90;1.00;;;;;;5107735;28;20019;-74
2023/10/14 00:29:20;;;;;;;32.17;17.77;;;18.90;1.00;;;;;;5090881;28;20023;-76
2023/10/14 00:31:48;;;;;;;23.15;16.70;;;18.80;1.00;;;;;;5111364;28;20031;-76
2023/10/14 00:34:18;;;;;;;24.25;17.42;;;18.90;1.00;;;;;;5112024;28;20061;-76
2023/10/14 00:36:44;;;;;;;22.98;17.10;;;18.80;1.00;;;;;;5093285;28;20027;-76
2023/10/14 00:39:13;;;;;;;26.17;18.23;;;18.80;1.00;;;;;;5111967;28;20490;-76
2023/10/14 00:41:42;;;;;;;27.58;18.63;;;18.70;1.00;;;;;;5111630;28;20497;-76
2023/10/14 00:44:08;;;;;;;24.75;17.13;;;18.70;1.00;;;;;;5088623;28;20020;-76
2023/10/14 00:46:35;;;;;;;26.92;18.63;;;18.70;1.00;;;;;;5091961;28;20027;-76
2023/10/14 00:49:04;;;;;;;26.58;18.63;;;18.70;1.00;;;;;;5111745;28;20531;-75
2023/10/14 00:51:33;;;;;;;26.40;19.35;;;18.70;1.00;;;;;;5111605;28;20069;-76
2023/10/14 00:54:02;;;;;;;26.73;18.85;;;18.70;1.00;;;;;;5111839;28;20030;-76
2023/10/14 00:56:31;;;;;;;25.35;18.65;;;18.60;1.00;;;;;;5111277;28;20053;-76
2023/10/14 00:59:02;;;;;;;27.88;18.95;;;18.60;1.00;;;;;;5111833;28;20020;-76
2023/10/14 01:01:28;;;;;;;26.92;19.02;;;18.60;1.00;;;;;;5110600;28;20011;-76
2023/10/14 01:04:05;;;;;;;30.92;19.27;;;18.60;1.00;;;;;;5093151;28;20042;-75
2023/10/14 01:06:53;;;;;;;24.75;19.77;;;18.60;2.50;;;;;;5107546;28;20020;-76
2023/10/14 01:09:20;;;;;;;22.20;18.27;;;18.50;3.30;;;;;;5093202;28;20497;-76
2023/10/14 01:11:46;;;;;;;26.67;19.02;;;18.50;4.40;;;;;;5092889;28;20553;-76
2023/10/14 01:14:16;;;;;;;27.02;18.30;;;18.50;8.10;;;;;;5111654;28;20123;-76
2023/10/14 01:16:46;;;;;;;32.37;21.30;;;18.40;11.60;;;;;;5111120;28;20377;-76
2023/10/14 01:19:15;;;;;;;26.55;18.70;;;18.30;16.60;;;;;;5093281;28;20048;-76
2023/10/14 01:21:43;;;;;;;26.55;17.10;;;18.20;19.20;;;;;;5115551;28;20370;-76
2023/10/14 01:24:15;;;;;;;26.38;17.63;;;18.20;22.20;;;;;;5115862;28;20023;-76
2023/10/14 01:27:00;;;;;;;26.08;16.95;;;18.20;23.00;;;;;;5115331;28;20484;-76
2023/10/14 01:29:30;;;;;;;31.05;19.10;;;18.20;21.00;;;;;;5114450;28;20145;-76
2023/10/14 01:32:26;;;;;;;25.73;17.88;;;18.20;20.00;;;;;;5107628;28;20019;-76
2023/10/14 01:34:58;;;;;;;25.98;17.27;;;18.20;17.80;;;;;;5110740;28;20019;-76
2023/10/14 01:37:27;;;;;;;29.02;18.17;;;18.20;17.40;;;;;;5089959;28;20366;-76
2023/10/14 01:39:57;;;;;;;25.95;20.05;;;18.20;19.20;;;;;;5110290;28;20107;-75
2023/10/14 01:42:23;;;;;;;25.05;18.70;;;18.20;18.50;;;;;;5089302;28;20035;-75
2023/10/14 01:44:53;;;;;;;26.58;18.63;;;18.20;20.00;;;;;;5093008;28;20055;-76
2023/10/14 01:47:25;;;;;;;27.52;19.13;;;18.10;24.30;;;;;;5110242;28;20050;-76
2023/10/14 01:49:51;;;;;;;30.15;21.23;;;18.10;24.60;;;;;;5106460;28;20030;-76
2023/10/14 01:52:19;;;;;;;29.90;19.35;;;18.10;26.30;;;;;;5090310;28;20034;-76
2023/10/14 01:54:47;;;;;;;25.25;20.02;;;18.10;26.10;;;;;;5110766;28;20118;-76
2023/10/14 01:57:17;;;;;;;26.55;19.40;;;18.00;28.80;;;;;;5110044;28;20477;-76
2023/10/14 01:59:45;;;;;;;28.75;19.70;;;18.00;29.00;;;;;;5096627;28;20489;-74
2023/10/14 02:02:15;;;;;;;28.05;19.35;;;18.00;29.60;;;;;;5093028;28;20097;-74
2023/10/14 02:04:45;;;;;;;29.40;19.80;;;18.00;30.20;;;;;;5125773;27;20036;-74
2023/10/14 02:07:30;;;;;;;30.27;20.80;;;18.00;29.30;;;;;;5110614;28;20076;-74
2023/10/14 02:09:59;;;;;;;30.85;19.90;;;17.90;30.90;;;;;;5108732;28;20478;-74
2023/10/14 02:12:25;;;;;;;28.65;19.75;;;18.00;30.00;;;;;;5110718;28;20024;-74
2023/10/14 02:14:59;;;;;;;27.83;19.25;;;18.00;28.70;;;;;;5110129;28;20020;-74
2023/10/14 02:17:25;;;;;;;29.17;20.15;;;18.00;29.10;;;;;;5109690;28;20235;-74
2023/10/14 02:19:54;;;;;;;30.27;19.70;;;17.90;30.80;;;;;;5110176;28;20131;-74
2023/10/14 02:22:23;;;;;;;28.15;18.92;;;17.90;31.90;;;;;;5110351;28;20023;-74
2023/10/14 02:24:49;;;;;;;34.35;19.13;;;17.90;34.00;;;;;;5111947;28;20039;-74
2023/10/14 02:27:15;;;;;;;26.80;19.00;;;17.90;34.10;;;;;;5114039;28;20023;-74
2023/10/14 02:29:45;;;;;;;27.02;18.90;;;17.90;35.20;;;;;;5113914;28;20038;-76
2023/10/14 02:32:12;;;;;;;28.45;19.50;;;17.90;37.00;;;;;;5093020;28;20061;-76
2023/10/14 02:34:45;;;;;;;25.02;19.48;;;17.90;37.30;;;;;;5110702;28;20020;-76
2023/10/14 02:37:13;;;;;;;29.23;18.52;;;17.80;38.10;;;;;;5113006;28;20020;-76
2023/10/14 02:39:43;;;;;;;26.30;18.40;;;17.80;40.80;;;;;;5089522;28;20020;-76
2023/10/14 02:42:09;;;;;;;28.70;19.33;;;17.80;43.40;;;;;;5113367;28;20026;-76
2023/10/14 02:44:46;;;;;;;28.55;19.23;;;17.70;44.70;;;;;;5114310;28;20111;-76
2023/10/14 02:47:13;;;;;;;30.73;19.13;;;17.70;44.30;;;;;;5113831;28;20059;-76
2023/10/14 02:49:40;;;;;;;29.63;18.27;;;17.70;47.30;;;;;;5095644;28;20028;-76
2023/10/14 02:52:11;;;;;;;33.80;18.77;;;17.70;47.60;;;;;;5093179;28;20024;-75
2023/10/14 02:54:45;;;;;;;31.55;20.10;;;17.70;48.10;;;;;;5095754;28;20027;-76
2023/10/14 02:57:23;;;;;;;29.63;19.88;;;17.70;49.00;;;;;;5113715;28;20099;-75
2023/10/14 02:59:50;;;;;;;30.85;18.85;;;17.70;46.00;;;;;;5114162;28;20022;-76
2023/10/14 03:04:55;;;;;;;29.85;19.45;;;17.70;45.70;;;;;;5110121;28;20031;-75
2023/10/14 03:07:27;;;;;;;27.17;18.90;;;17.70;45.00;;;;;;5113296;28;20034;-76
2023/10/14 03:09:58;;;;;;;31.08;20.30;;;17.70;44.70;;;;;;5113891;28;20062;-76
2023/10/14 03:12:27;;;;;;;26.40;19.87;;;17.70;45.70;;;;;;5109978;28;20428;-75
2023/10/14 03:14:53;;;;;;;28.83;18.73;;;17.70;46.90;;;;;;5113771;28;20020;-76
2023/10/14 03:17:40;;;;;;;30.85;19.13;;;17.70;46.60;;;;;;5113200;28;20103;-76
2023/10/14 03:22:57;;;;;;;28.98;19.40;;;17.60;49.70;;;;;;5110768;28;20028;-76
2023/10/14 03:25:23;;;;;;;28.60;18.85;;;17.50;54.00;;;;;;5113421;28;20073;-75
2023/10/14 03:28:11;;;;;;;29.30;19.10;;;17.50;54.90;;;;;;5126035;27;20027;-76
2023/10/14 03:30:38;;;;;;;25.25;17.85;;;17.50;55.20;;;;;;5109743;28;21034;-76
2023/10/14 03:33:10;;;;;;;24.60;17.88;;;17.50;55.50;;;;;;5106305;28;20278;-76
2023/10/14 03:35:53;;;;;;;27.80;18.83;;;17.50;57.00;;;;;;5089641;28;20030;-76
2023/10/14 03:41:10;;;;;;;30.60;18.90;;;17.50;53.70;;;;;;5108109;28;20036;-76
2023/10/14 03:43:44;;;;;;;23.77;18.88;;;17.50;55.60;;;;;;5106407;28;20020;-76
2023/10/14 03:46:14;;;;;;;23.52;16.85;;;17.40;55.10;;;;;;5108121;28;20023;-76
2023/10/14 03:48:47;;;;;;;22.55;17.50;;;17.40;58.20;;;;;;5108828;28;20023;-76
2023/10/14 03:51:25;;;;;;;25.88;17.83;;;17.40;55.50;;;;;;5112670;28;20023;-76
2023/10/14 03:53:55;;;;;;;22.67;17.55;;;17.40;55.40;;;;;;5109488;28;20031;-74
2023/10/14 03:56:22;;;;;;;30.23;19.23;;;17.40;55.30;;;;;;5112542;28;20419;-74
2023/10/14 03:58:57;;;;;;;26.08;17.42;;;17.40;55.70;;;;;;5094205;28;20019;-74
2023/10/14 04:01:28;;;;;;;25.77;17.17;;;17.40;57.10;;;;;;5107442;28;20022;-74
2023/10/14 04:03:54;;;;;;;24.27;17.47;;;17.40;54.60;;;;;;5109442;28;20030;-74
2023/10/14 04:06:20;;;;;;;27.30;17.85;;;17.40;54.90;;;;;;5112260;28;20106;-74
2023/10/14 04:08:49;;;;;;;23.98;17.50;;;17.40;55.20;;;;;;5094236;28;20020;-74
2023/10/14 04:11:25;;;;;;;24.85;17.17;;;17.40;54.20;;;;;;5108601;28;20534;-74
2023/10/14 04:19:27;;;;;;;28.45;18.35;;;17.40;53.50;;;;;;5112577;28;20074;-74
2023/10/14 04:21:59;;;;;;;24.85;18.63;;;17.40;55.90;;;;;;5110686;28;20103;-74
2023/10/14 04:27:16;;;;;;;24.88;17.83;;;17.30;55.60;;;;;;5112125;28;20115;-74
2023/10/14 04:29:51;;;;;;;26.10;17.52;;;17.30;56.00;;;;;;5109273;28;20039;-74
2023/10/14 04:32:25;;;;;;;24.40;17.00;;;17.30;56.40;;;;;;5111599;28;20492;-74
2023/10/14 04:34:54;;;;;;;28.50;17.30;;;17.30;57.00;;;;;;5112682;28;20023;-74
2023/10/14 04:37:20;;;;;;;26.35;18.33;;;17.30;58.60;;;;;;5112558;28;20496;-74
2023/10/14 04:39:48;;;;;;;30.95;18.23;;;17.20;61.20;;;;;;5112752;28;20020;-74
2023/10/14 04:44:58;;;;;;;26.55;17.15;;;17.20;63.60;;;;;;5108413;28;20045;-74
2023/10/14 04:47:35;;;;;;;24.80;17.23;;;17.10;67.30;;;;;;5089107;28;20024;-74
2023/10/14 04:50:10;;;;;;;32.15;16.85;;;17.10;66.80;;;;;;5108746;28;20019;-74
2023/10/14 04:52:41;;;;;;;29.20;17.83;;;17.10;67.60;;;;;;5111293;28;20024;-74
2023/10/14 04:55:25;;;;;;;29.15;18.20;;;17.10;67.00;;;;;;5108430;28;20012;-74
2023/10/14 04:58:11;;;;;;;28.17;17.70;;;17.10;69.90;;;;;;5093325;28;20564;-75
2023/10/14 05:00:42;;;;;;;25.75;18.23;;;17.10;68.10;;;;;;5093125;28;20024;-74
2023/10/14 05:03:21;;;;;;;22.02;16.85;;;17.10;68.90;;;;;;5108247;28;20020;-74
2023/10/14 05:05:55;;;;;;;22.35;16.92;;;17.10;65.40;;;;;;5111764;28;20118;-75
2023/10/14 05:08:24;;;;;;;25.15;17.60;;;17.10;64.20;;;;;;5087017;28;20062;-75
2023/10/14 05:10:53;;;;;;;28.83;17.60;;;17.10;64.30;;;;;;5112048;28;20031;-74
2023/10/14 05:13:33;;;;;;;23.10;17.25;;;17.00;66.30;;;;;;5111375;28;20035;-74
2023/10/14 05:16:15;;;;;;;20.08;15.65;;;17.00;68.20;;;;;;5105166;28;20056;-75
2023/10/14 05:19:06;;;;;;;20.25;16.52;;;17.10;65.80;;;;;;5110514;28;20035;-75
2023/10/14 05:21:36;;;;;;;20.05;15.60;;;17.10;63.80;;;;;;5108242;28;20114;-74
2023/10/14 05:24:08;;;;;;;28.52;17.15;;;17.00;65.50;;;;;;5111698;28;20024;-74
2023/10/14 05:26:46;;;;;;;22.23;15.93;;;17.00;68.60;;;;;;5111307;28;20022;-74
2023/10/14 05:29:19;;;;;;;23.30;17.75;;;17.00;68.50;;;;;;5111665;28;20008;-74
2023/10/14 05:31:49;;;;;;;30.65;18.00;;;17.00;69.30;;;;;;5092214;28;20490;-75
2023/10/14 05:34:17;;;;;;;26.42;18.55;;;17.10;68.90;;;;;;5110645;28;20020;-74
2023/10/14 05:36:44;;;;;;;24.83;17.77;;;17.00;75.10;;;;;;5111223;28;20020;-74
2023/10/14 05:39:10;;;;;;;22.35;17.95;;;17.00;77.90;;;;;;5111619;28;20027;-74
2023/10/14 05:41:39;;;;;;;23.30;17.00;;;17.00;78.10;;;;;;5127016;28;20019;-75
2023/10/14 05:44:08;;;;;;;21.70;16.13;;;16.90;77.10;;;;;;5090423;28;20546;-74
2023/10/14 05:46:34;;;;;;;20.35;15.48;;;16.90;80.10;;;;;;5105615;28;20474;-74
2023/10/14 05:49:01;;;;;;;30.38;17.00;;;16.90;80.20;;;;;;5107294;28;20068;-74
2023/10/14 05:51:27;;;;;;;25.13;17.58;;;17.00;80.20;;;;;;5106873;28;20051;-74
2023/10/14 05:53:52;;;;;;;24.13;16.80;;;16.90;84.10;;;;;;5106673;28;20070;-74
2023/10/14 05:56:19;;;;;;;22.48;16.08;;;17.00;83.60;;;;;;5122738;28;20023;-74
2023/10/14 05:58:45;;;;;;;24.40;16.60;;;17.00;81.20;;;;;;5106916;28;20047;-74
2023/10/14 06:01:13;;;;;;;22.13;15.65;;;17.00;83.00;;;;;;5087281;28;20024;-75
2023/10/14 06:03:43;;;;;;;21.15;15.27;;;17.00;78.00;;;;;;5089217;28;20050;-75
2023/10/14 06:06:10;;;;;;;20.63;15.35;;;17.10;75.90;;;;;;5110875;28;20110;-74
2023/10/14 06:08:39;;;;;;;20.10;14.75;;;17.20;70.60;;;;;;5113195;28;20023;-75
2023/10/14 06:11:05;;;;;;;22.10;16.33;;;17.20;72.10;;;;;;5114794;28;20538;-75
2023/10/14 06:13:32;;;;;;;22.25;14.60;;;17.30;64.90;;;;;;5115141;28;20020;-76
2023/10/14 06:16:04;;;;;;;24.88;15.63;;;17.30;64.20;;;;;;5114624;28;20055;-76
2023/10/14 06:18:30;;;;;;;21.55;15.40;;;17.30;67.00;;;;;;5114213;28;20028;-76
2023/10/14 06:20:57;;;;;;;23.98;16.08;;;17.30;71.30;;;;;;5114587;28;20020;-76
2023/10/14 06:23:26;;;;;;;23.45;16.02;;;17.30;70.40;;;;;;5114771;28;20027;-75
2023/10/14 06:25:54;;;;;;;22.63;15.68;;;17.30;78.50;;;;;;5114808;28;20028;-76
2023/10/14 06:28:19;;;;;;;21.00;15.45;;;17.30;80.10;;;;;;5114371;28;20497;-76
2023/10/14 06:30:45;;;;;;;25.45;17.20;;;17.30;84.70;;;;;;5114824;28;20031;-76
2023/10/14 06:33:11;;;;;;;24.50;17.63;;;17.30;87.90;;;;;;5112210;28;20039;-76
2023/10/14 06:35:42;;;;;;;25.35;17.88;;;17.30;86.70;;;;;;5114339;28;20023;-76
2023/10/14 06:38:09;;;;;;;28.25;17.23;;;17.30;90.40;;;;;;5114226;28;20347;-76
2023/10/14 06:40:36;;;;;;;26.40;19.90;;;17.30;96.40;;;;;;5095445;28;20122;-75
2023/10/14 06:43:13;;;;;;;34.45;23.00;;;17.40;97.20;;;;;;5089297;28;20082;-76
2023/10/14 06:45:39;;;;;;;40.60;25.85;;;17.40;94.70;;;;;;5092135;28;20121;-76
2023/10/14 06:48:15;;;;;;;48.60;29.10;;;17.40;93.60;;;;;;5109716;28;20087;-75
2023/10/14 06:50:47;;;;;;;48.17;30.30;;;17.50;91.90;;;;;;5106173;28;20039;-76
2023/10/14 06:53:14;;;;;;;38.75;25.90;;;17.50;91.60;;;;;;5110555;28;20028;-76
2023/10/14 06:55:40;;;;;;;41.97;25.98;;;17.60;90.00;;;;;;5101578;28;20027;-76
2023/10/14 06:58:08;;;;;;;37.20;24.80;;;17.60;87.80;;;;;;5090819;28;20027;-76
2023/10/14 07:00:37;;;;;;;36.58;25.17;;;17.60;82.70;;;;;;5110130;28;20536;-76
2023/10/14 07:03:10;;;;;;;38.53;25.92;;;17.60;89.00;;;;;;5109457;28;20023;-76
2023/10/14 07:05:48;;;;;;;43.53;26.73;;;17.70;81.40;;;;;;5109032;28;20016;-76
2023/10/14 07:08:21;;;;;;;35.13;25.08;;;17.70;76.70;;;;;;5107702;28;20027;-75
2023/10/14 07:10:50;;;;;;;43.42;26.30;;;17.80;70.70;;;;;;5090898;28;20405;-76
2023/10/14 07:13:17;;;;;;;42.13;26.73;;;17.80;72.80;;;;;;5109986;28;20077;-76
2023/10/14 07:15:44;;;;;;;41.38;26.92;;;17.90;68.50;;;;;;5108902;28;20386;-76
2023/10/14 07:18:13;;;;;;;45.38;26.05;;;17.90;62.20;;;;;;5112669;28;20039;-75
2023/10/14 07:20:42;;;;;;;44.05;26.67;;;17.90;63.00;;;;;;5112819;28;20032;-76
2023/10/14 07:23:08;;;;;;;44.90;27.58;;;17.90;59.60;;;;;;5111173;28;20032;-75
2023/10/14 07:25:36;;;;;;;44.22;28.30;;;18.00;55.50;;;;;;5113273;28;20098;-74
2023/10/14 07:28:06;;;;;;;42.45;29.33;;;18.00;56.50;;;;;;5112172;28;20439;-74
2023/10/14 07:30:34;;;;;;;44.03;29.08;;;18.00;58.60;;;;;;5111652;28;20027;-74
2023/10/14 07:33:01;;;;;;;40.17;28.45;;;18.00;61.20;;;;;;5094019;28;20817;-74
2023/10/14 07:35:27;;;;;;;44.90;28.45;;;18.10;61.40;;;;;;5108604;28;20020;-74
2023/10/14 07:37:53;;;;;;;41.97;26.98;;;18.20;76.50;;;;;;5103159;28;20042;-74
2023/10/14 07:40:22;;;;;;;44.40;29.52;;;18.20;73.10;;;;;;5107217;28;20034;-74
2023/10/14 07:42:59;;;;;;;45.92;28.45;;;18.20;67.50;;;;;;5103094;28;20128;-76
2023/10/14 07:45:28;;;;;;;44.78;28.83;;;18.30;65.80;;;;;;5107916;28;20259;-76
2023/10/14 07:47:58;;;;;;;44.63;29.17;;;18.30;68.40;;;;;;5107345;28;20482;-76
2023/10/14 07:50:24;;;;;;;49.90;31.45;;;18.30;68.50;;;;;;5103561;28;20031;-75
2023/10/14 07:52:54;;;;;;;48.95;32.40;;;18.40;69.10;;;;;;5105609;28;20028;-76
2023/10/14 07:55:25;;;;;;;50.50;32.38;;;18.40;71.50;;;;;;5109365;28;20237;-74
2023/10/14 07:57:51;;;;;;;58.25;31.52;;;18.40;66.50;;;;;;5090930;28;20327;-74
2023/10/14 08:00:17;;;;;;;50.42;31.77;;;18.40;63.10;;;;;;5109180;28;20077;-76
2023/10/14 08:02:43;;;;;;;48.95;29.58;;;18.50;60.60;;;;;;5109922;28;20498;-76
2023/10/14 08:05:10;;;;;;;47.92;29.90;;;18.50;64.70;;;;;;5101889;28;20096;-76
2023/10/14 08:07:45;;;;;;;48.20;31.08;;;18.60;66.80;;;;;;5090002;28;20549;-74
2023/10/14 08:10:17;;;;;;;52.88;32.53;;;18.60;68.10;;;;;;5110264;28;20024;-74
2023/10/14 08:12:47;;;;;;;51.65;31.38;;;18.60;74.40;;;;;;5108152;28;20042;-74
2023/10/14 08:15:19;;;;;;;49.67;32.45;;;18.70;81.50;;;;;;5109354;28;20027;-74
2023/10/14 08:17:45;;;;;;;;;;;18.70;81.20;;;;;;5106011;28;20309;-75
2023/10/14 08:20:14;;;;;;;54.20;31.08;;;18.70;71.00;;;;;;5106743;28;20357;-74
2023/10/14 08:22:41;;;;;;;51.47;33.42;;;18.70;61.10;;;;;;5108503;27;20045;-74
2023/10/14 08:25:07;;;;;;;47.85;29.95;;;18.70;61.30;;;;;;5109985;28;20038;-74
2023/10/14 08:27:34;;;;;;;45.80;30.35;;;18.80;52.50;;;;;;5108752;28;20024;-74
2023/10/14 08:30:00;;;;;;;50.13;28.45;;;18.80;40.80;;;;;;5104228;28;20034;-76
2023/10/14 08:32:27;;;;;;;38.88;26.25;;;18.80;38.50;;;;;;5089679;28;20038;-76
2023/10/14 08:34:53;;;;;;;43.08;26.98;;;18.90;46.90;;;;;;5105498;28;20051;-76
2023/10/14 08:37:18;;;;;;;42.67;27.73;;;19.00;29.60;;;;;;5106259;28;20464;-76
2023/10/14 08:39:44;;;;;;;49.53;26.38;;;19.00;30.50;;;;;;5105670;28;20020;-76
2023/10/14 08:42:10;;;;;;;45.15;27.05;;;19.10;15.60;;;;;;5106588;28;20055;-74
2023/10/14 08:44:42;;;;;;;42.25;25.73;;;19.20;37.90;;;;;;5107476;28;20082;-74
2023/10/14 08:47:13;;;;;;;;;;;19.30;22.20;;;;;;5112499;28;20473;-74
2023/10/14 08:49:41;;;;;;;45.05;27.10;;;19.40;26.10;;;;;;5093577;28;20266;-74
2023/10/14 08:52:16;;;;;;;38.10;26.60;;;19.40;13.40;;;;;;5093532;28;20038;-73
2023/10/14 08:54:43;;;;;;;38.38;26.25;;;19.50;23.00;;;;;;5093522;28;20039;-74
2023/10/14 08:57:09;;;;;;;43.95;25.75;;;19.50;21.70;;;;;;5111875;28;20043;-74
2023/10/14 08:59:34;;;;;;;43.13;26.50;;;19.50;22.20;;;;;;5109088;28;20051;-74
2023/10/14 09:02:01;;;;;;;39.08;25.73;;;19.60;17.20;;;;;;5107189;28;20028;-74
2023/10/14 09:04:28;;;;;;;38.78;26.15;;;19.60;18.20;;;;;;5108147;28;20027;-74
2023/10/14 09:07:00;;;;;;;42.35;26.75;;;19.60;28.40;;;;;;5107135;28;20072;-74
2023/10/14 09:09:26;;;;;;;47.00;27.13;;;19.60;17.50;;;;;;5107078;28;20016;-74
2023/10/14 09:11:52;;;;;;;42.25;26.63;;;19.70;29.60;;;;;;5107762;28;20126;-74
2023/10/14 09:14:17;;;;;;;46.90;28.05;;;19.80;24.80;;;;;;5103284;28;20019;-74
2023/10/14 09:16:48;;;;;;;48.58;28.23;;;19.80;22.70;;;;;;5106987;28;20023;-74
2023/10/14 09:19:15;;;;;;;44.40;26.42;;;19.90;20.00;;;;;;5107479;28;20042;-74
2023/10/14 09:21:45;;;;;;;35.78;22.73;;;20.00;17.90;;;;;;5111157;28;20027;-74
2023/10/14 09:24:11;;;;;;;41.13;21.23;;;20.00;13.20;;;;;;5111687;28;20015;-74
2023/10/14 09:26:43;;;;;;;29.73;17.95;;;20.10;10.20;;;;;;5111331;28;20047;-74
2023/10/14 09:29:09;;;;;;;26.27;16.50;;;20.10;1.00;;;;;;5111646;28;20018;-74
2023/10/14 09:31:40;;;;;;;17.67;13.43;;;20.20;1.00;;;;;;5111444;28;20563;-74
2023/10/14 09:34:08;;;;;;;24.48;12.07;;;20.30;1.00;;;;;;5103750;28;20043;-74
2023/10/14 09:36:35;;;;;;;26.02;14.60;;;20.50;1.00;;;;;;5111235;28;20026;-74
2023/10/14 09:39:11;;;;;;;20.90;13.40;;;20.50;1.00;;;;;;5094247;28;20464;-74
2023/10/14 09:41:38;;;;;;;27.38;18.40;;;20.60;1.00;;;;;;5097148;28;20251;-74
2023/10/14 09:44:06;;;;;;;25.55;12.95;;;20.60;1.00;;;;;;5115547;28;20049;-74
2023/10/14 09:46:32;;;;;;;21.45;13.50;;;20.80;1.00;;;;;;5096871;28;20375;-73
2023/10/14 09:48:59;;;;;;;16.80;11.80;;;20.90;1.00;;;;;;5115175;28;20028;-74
2023/10/14 09:51:25;;;;;;;20.30;11.55;;;20.90;1.00;;;;;;5115123;28;20031;-74
2023/10/14 09:53:52;;;;;;;19.20;12.95;;;21.00;1.00;;;;;;5115215;28;20106;-74
2023/10/14 09:56:19;;;;;;;17.50;12.10;;;21.00;1.00;;;;;;5115137;28;20058;-74
2023/10/14 09:58:46;;;;;;;21.58;11.88;;;21.00;1.00;;;;;;5115262;28;20023;-74
2023/10/14 10:01:16;;;;;;;16.13;11.15;;;21.10;1.00;;;;;;5115074;28;20054;-74
2023/10/14 10:04:06;;;;;;;16.30;12.05;;;21.20;1.00;;;;;;5096771;28;20335;-74
2023/10/14 10:07:04;;;;;;;19.60;11.35;;;21.20;1.00;;;;;;5114251;28;20019;-74
2023/10/14 10:10:01;;;;;;;25.70;17.08;;;21.30;1.00;;;;;;5111022;28;20405;-74
2023/10/14 10:12:31;;;;;;;17.52;11.02;;;21.40;1.00;;;;;;5086231;28;20032;-74
2023/10/14 10:15:06;;;;;;;14.98;10.82;;;21.40;1.00;;;;;;5114845;28;20031;-73
2023/10/14 10:17:34;;;;;;;18.73;12.15;;;21.50;1.00;;;;;;5111611;28;20028;-74
2023/10/14 10:20:09;;;;;;;15.73;10.77;;;21.40;1.00;;;;;;5114466;28;20118;-74
2023/10/14 10:22:51;;;;;;;18.08;10.73;;;21.40;1.00;;;;;;5114704;28;20020;-73
2023/10/14 10:25:20;;;;;;;24.73;11.30;;;21.40;1.00;;;;;;5114684;28;20102;-74
2023/10/14 10:27:49;;;;;;;17.20;10.68;;;21.40;1.00;;;;;;5114577;28;20066;-74
2023/10/14 10:30:19;;;;;;;16.95;10.40;;;21.40;1.00;;;;;;5113491;28;20546;-74
2023/10/14 10:35:16;;;;;;;18.52;11.48;;;21.50;1.00;;;;;;5078042;22;20059;-76
2023/10/14 10:37:55;;;;;;;19.30;11.77;;;21.50;1.00;;;;;;5105043;28;20427;-76
2023/10/14 10:40:25;;;;;;;14.52;11.10;;;21.60;1.00;;;;;;5101558;28;20466;-76
2023/10/14 10:43:05;;;;;;;19.65;12.05;;;21.60;1.00;;;;;;5072707;28;20394;-76
2023/10/14 10:45:35;;;;;;;22.58;11.48;;;21.60;1.00;;;;;;5102473;28;20467;-75
2023/10/14 10:48:05;;;;;;;18.33;11.85;;;21.70;1.00;;;;;;5080302;28;20035;-76
2023/10/14 10:50:35;;;;;;;16.25;11.82;;;21.80;1.00;;;;;;5101079;28;20024;-76
2023/10/14 10:53:07;;;;;;;16.88;11.48;;;21.80;1.00;;;;;;5104023;28;20469;-76
2023/10/14 10:55:36;;;;;;;18.27;11.13;;;21.90;1.00;;;;;;5078653;28;20035;-76
2023/10/14 10:58:03;;;;;;;18.00;11.82;;;21.90;1.00;;;;;;5099220;28;20024;-76
2023/10/14 11:00:30;;;;;;;23.83;12.00;;;22.00;1.00;;;;;;5101582;28;20015;-76
2023/10/14 11:02:56;;;;;;;13.18;10.98;;;22.00;1.00;;;;;;5083503;28;20039;-76
2023/10/14 11:05:24;;;;;;;14.23;10.85;;;22.00;1.00;;;;;;5096790;28;20035;-76
2023/10/14 11:07:52;;;;;;;16.55;10.80;;;22.00;1.00;;;;;;5105795;28;20394;-76
2023/10/14 11:10:28;;;;;;;20.38;11.63;;;22.00;1.00;;;;;;5098508;28;20032;-76
2023/10/14 11:12:58;;;;;;;21.05;10.55;;;22.10;1.00;;;;;;5103484;28;20034;-76
2023/10/14 11:15:31;;;;;;;17.70;11.75;;;22.20;1.00;;;;;;5102008;28;20020;-76
2023/10/14 11:17:58;;;;;;;19.10;10.50;;;22.30;1.00;;;;;;5103584;28;20054;-76
2023/10/14 11:20:36;;;;;;;14.18;10.82;;;22.40;1.00;;;;;;5095457;28;20032;-76
2023/10/14 11:23:04;;;;;;;15.85;10.15;;;22.40;1.00;;;;;;5099218;28;20047;-76
2023/10/14 11:25:35;;;;;;;14.73;9.63;;;22.50;1.00;;;;;;5099161;28;20452;-76
2023/10/14 11:28:05;;;;;;;11.50;8.80;;;22.50;1.00;;;;;;5086671;28;20031;-74
2023/10/14 11:30:31;;;;;;;14.63;9.15;;;22.60;99.90;;;;;;5092600;28;20413;-74
2023/10/14 11:32:58;;;;;;;11.02;9.10;;;22.60;99.90;;;;;;5081163;28;20103;-74
2023/10/14 11:35:28;;;;;;;13.45;8.88;;;22.50;99.90;;;;;;5093651;28;20048;-73
2023/10/14 11:38:02;;;;;;;14.57;8.57;;;22.60;99.90;;;;;;5062794;28;20089;-74
2023/10/14 11:40:39;;;;;;;11.90;8.98;;;22.70;99.90;;;;;;5058720;28;20024;-74
2023/10/14 11:43:05;;;;;;;11.98;9.27;;;22.80;99.90;;;;;;5065966;28;20036;-74
2023/10/14 11:45:31;;;;;;;16.63;9.05;;;22.80;99.90;;;;;;5073386;28;20021;-74
2023/10/14 11:48:00;;;;;;;19.83;9.15;;;22.80;99.90;;;;;;5073761;28;20024;-74
2023/10/14 11:50:27;;;;;;;9.75;8.23;;;22.70;99.90;;;;;;5075582;28;20036;-74
2023/10/14 11:52:57;;;;;;;14.13;8.02;;;22.90;99.90;;;;;;5078098;28;20048;-73
2023/10/14 11:55:25;;;;;;;12.43;7.20;;;22.80;99.90;;;;;;5070852;28;20024;-74
2023/10/14 11:57:53;;;;;;;12.48;8.30;;;22.70;99.90;;;;;;5073212;28;20024;-73
2023/10/14 12:00:20;;;;;;;8.05;7.25;;;22.70;99.90;;;;;;5076317;28;20466;-73
2023/10/14 12:02:50;;;;;;;13.88;7.85;;;22.80;99.90;;;;;;5076076;28;20083;-74
2023/10/14 12:05:16;;;;;;;12.75;6.78;;;22.80;99.90;;;;;;5072497;28;20478;-74
2023/10/14 12:07:49;;;;;;;10.98;7.10;;;22.90;99.90;;;;;;5076233;28;20516;-74
2023/10/14 12:10:17;;;;;;;7.82;6.82;;;22.90;99.90;;;;;;5074840;28;20324;-74
2023/10/14 12:12:43;;;;;;;7.75;6.53;;;22.90;99.90;;;;;;5079144;28;20068;-74
2023/10/14 12:15:09;;;;;;;13.35;7.97;;;23.00;99.90;;;;;;5076735;28;20040;-73
2023/10/14 12:17:36;;;;;;;10.93;7.10;;;23.00;99.90;;;;;;5076931;28;20339;-73
2023/10/14 12:20:10;;;;;;;11.55;6.82;;;23.00;99.90;;;;;;5076102;28;20050;-74
2023/10/14 12:22:40;;;;;;;10.10;6.53;;;23.00;99.90;;;;;;5059905;28;20541;-74
2023/10/14 12:25:06;;;;;;;9.55;7.13;;;23.00;99.90;;;;;;5079365;28;20016;-74
2023/10/14 12:27:33;;;;;;;21.75;6.63;;;23.00;99.90;;;;;;5076811;28;20039;-74
2023/10/14 12:30:06;;;;;;;21.77;7.38;;;23.00;99.90;;;;;;5063111;28;20259;-73
2023/10/14 12:32:32;;;;;;;13.77;7.15;;;23.10;99.90;;;;;;5061340;28;20028;-73
2023/10/14 12:35:06;;;;;;;16.75;6.85;;;23.20;99.90;;;;;;5078918;28;20497;-74
2023/10/14 12:37:33;;;;;;;16.65;7.65;;;23.10;99.90;;;;;;5098272;28;20089;-73
2023/10/14 12:40:04;;;;;;;12.45;7.35;;;23.10;99.90;;;;;;5097361;28;20465;-73
2023/10/14 12:42:46;;;;;;;12.43;8.13;;;23.20;99.90;;;;;;5082052;28;20104;-74
2023/10/14 12:45:25;;;;;;;14.75;7.70;;;23.20;99.90;;;;;;5092342;28;20030;-73
2023/10/14 12:47:56;;;;;;;13.50;7.22;;;23.20;99.90;;;;;;5097638;28;20370;-74
2023/10/14 12:50:22;;;;;;;10.43;7.45;;;23.20;99.90;;;;;;5097448;28;20081;-74
2023/10/14 12:53:00;;;;;;;18.05;8.05;;;23.20;83.00;;;;;;5102386;28;20027;-73
2023/10/14 12:55:26;;;;;;;11.27;6.65;;;23.20;99.90;;;;;;5094156;28;20030;-74
2023/10/14 12:57:54;;;;;;;13.77;6.93;;;23.30;53.30;;;;;;5099739;28;20509;-74
2023/10/14 13:00:25;;;;;;;15.95;8.10;;;23.30;1.00;;;;;;5100177;28;20427;-73
2023/10/14 13:02:53;;;;;;;17.23;6.80;;;23.30;1.00;;;;;;5103694;28;20382;-74
2023/10/14 13:05:20;;;;;;;13.32;7.25;;;23.30;1.00;;;;;;5096214;28;20798;-73
2023/10/14 13:07:52;;;;;;;12.45;6.75;;;23.30;1.00;;;;;;5101967;28;20030;-74